Time;durP1;ratioP1;P1;durP2;ratioP2;P2;SDS_P1;SDS_P2;PMS_P1;PMS_P2;Temp;Humidity;BMP_temperature;BMP_pressure;BME280_temperature;BME280_humidity;BME280_pressure;Samples;Min_cycle;Max_cycle;Signal;HPM_P1;HPM_P2
2023/04/27 00:00:09;;;;;;;12.13;6.23;;;8.40;99.90;;;;;;4117612;28;20226;-92
2023/04/27 00:02:10;;;;;;;12.30;6.10;;;8.40;99.90;;;;;;4117844;28;20642;-92
2023/04/27 00:04:13;;;;;;;10.20;6.00;;;8.30;99.90;;;;;;4101479;28;20205;-92
2023/04/27 00:06:13;;;;;;;16.27;6.70;;;8.40;99.90;;;;;;4101542;29;20288;-92
2023/04/27 00:08:14;;;;;;;15.37;6.17;;;8.40;99.90;;;;;;4101700;29;20304;-94
2023/04/27 00:10:15;;;;;;;12.80;6.30;;;8.30;99.90;;;;;;4101294;29;20206;-93
2023/04/27 00:12:16;;;;;;;10.97;6.37;;;8.30;99.90;;;;;;4101503;29;20176;-92
2023/04/27 00:14:16;;;;;;;12.63;6.20;;;8.30;99.90;;;;;;4100925;28;20218;-93
2023/04/27 00:16:17;;;;;;;12.37;6.80;;;8.30;99.90;;;;;;4101101;29;20195;-92
2023/04/27 00:18:19;;;;;;;13.13;6.83;;;8.20;99.90;;;;;;4101008;29;20563;-93
2023/04/27 00:20:20;;;;;;;16.87;7.33;;;8.20;99.90;;;;;;4101452;28;20171;-92
2023/04/27 00:22:21;;;;;;;12.83;7.10;;;8.10;99.90;;;;;;4117257;28;20174;-92
2023/04/27 00:24:21;;;;;;;14.13;7.53;;;8.10;99.90;;;;;;4101026;28;20202;-92
2023/04/27 00:26:22;;;;;;;12.53;7.00;;;8.00;99.90;;;;;;4117340;28;20687;-92
2023/04/27 00:28:25;;;;;;;13.50;6.93;;;7.90;99.90;;;;;;4101338;28;20723;-92
2023/04/27 00:30:26;;;;;;;13.63;7.13;;;7.80;99.90;;;;;;4100705;29;20187;-93
2023/04/27 00:32:27;;;;;;;15.23;7.30;;;7.90;99.90;;;;;;4116895;28;20273;-92
2023/04/27 00:34:28;;;;;;;15.10;7.07;;;7.90;99.90;;;;;;4116980;28;20202;-92
2023/04/27 00:36:28;;;;;;;15.97;7.33;;;8.00;99.90;;;;;;4117087;28;20654;-95
2023/04/27 00:38:30;;;;;;;12.77;7.03;;;7.90;99.90;;;;;;4100748;29;20631;-92
2023/04/27 00:40:32;;;;;;;15.33;7.07;;;7.90;99.90;;;;;;4100927;28;20258;-92
2023/04/27 00:42:34;;;;;;;21.57;7.27;;;7.90;99.90;;;;;;4100655;28;20182;-93
2023/04/27 00:44:35;;;;;;;16.00;7.90;;;7.90;99.90;;;;;;4116999;28;20178;-93
2023/04/27 00:46:36;;;;;;;14.63;8.07;;;8.00;99.90;;;;;;4100395;29;20171;-92
2023/04/27 00:48:37;;;;;;;16.73;7.03;;;8.00;99.90;;;;;;4116277;28;20179;-92
2023/04/27 00:50:38;;;;;;;12.73;7.73;;;8.00;99.90;;;;;;4100670;29;20258;-92
2023/04/27 00:52:40;;;;;;;17.80;7.60;;;8.10;99.90;;;;;;4100341;28;20183;-94
2023/04/27 00:54:42;;;;;;;16.53;7.50;;;8.10;99.90;;;;;;4100391;28;20174;-92
2023/04/27 00:56:44;;;;;;;16.53;8.10;;;8.00;99.90;;;;;;4100446;29;20259;-93
2023/04/27 00:58:44;;;;;;;19.23;7.97;;;8.00;99.90;;;;;;4100535;29;20571;-91
2023/04/27 01:00:45;;;;;;;13.87;7.27;;;8.00;99.90;;;;;;4100523;29;20185;-93
2023/04/27 01:02:47;;;;;;;17.77;7.37;;;8.00;99.90;;;;;;4100777;28;20183;-93
2023/04/27 01:04:52;;;;;;;17.50;7.60;;;7.90;99.90;;;;;;4100908;28;20239;-93
2023/04/27 01:06:53;;;;;;;14.63;8.20;;;7.80;99.90;;;;;;4100749;29;20175;-94
2023/04/27 01:08:55;;;;;;;16.03;7.37;;;7.70;99.90;;;;;;4116351;28;20576;-91
2023/04/27 01:10:56;;;;;;;14.03;7.50;;;7.60;99.90;;;;;;4100894;29;20261;-93
2023/04/27 01:12:56;;;;;;;14.57;8.07;;;7.50;99.90;;;;;;4100234;28;20209;-92
2023/04/27 01:14:57;;;;;;;19.47;8.13;;;7.50;99.90;;;;;;4100506;29;20551;-92
2023/04/27 01:16:58;;;;;;;16.13;7.87;;;7.50;99.90;;;;;;4100327;29;20174;-92
2023/04/27 01:18:59;;;;;;;23.67;8.33;;;7.50;99.90;;;;;;4116299;28;20212;-92
2023/04/27 01:21:00;;;;;;;18.20;8.83;;;7.40;99.90;;;;;;4100146;29;20175;-93
2023/04/27 01:23:00;;;;;;;15.30;8.17;;;7.30;99.90;;;;;;4116352;28;20202;-91
2023/04/27 01:25:01;;;;;;;14.63;7.87;;;7.30;99.90;;;;;;4100456;29;20170;-94
2023/04/27 01:27:05;;;;;;;12.93;7.50;;;7.20;99.90;;;;;;4100876;28;20183;-91
2023/04/27 01:29:05;;;;;;;17.53;8.23;;;7.20;99.90;;;;;;4116139;28;20532;-90
2023/04/27 01:31:06;;;;;;;19.17;7.57;;;7.10;99.90;;;;;;4100701;28;20710;-91
2023/04/27 01:33:07;;;;;;;14.03;7.50;;;7.10;99.90;;;;;;4116120;28;20261;-93
2023/04/27 01:35:08;;;;;;;17.43;7.90;;;6.90;99.90;;;;;;4100482;29;20592;-94
2023/04/27 01:37:09;;;;;;;22.67;8.13;;;6.80;99.90;;;;;;4099915;29;20171;-93
2023/04/27 01:39:10;;;;;;;18.27;7.77;;;6.80;99.90;;;;;;4099893;28;20207;-92
2023/04/27 01:41:11;;;;;;;13.17;7.50;;;6.70;99.90;;;;;;4116247;28;20520;-92
2023/04/27 01:43:11;;;;;;;16.17;8.00;;;6.70;99.90;;;;;;4100280;28;20718;-92
2023/04/27 01:45:12;;;;;;;17.63;8.03;;;6.70;99.90;;;;;;4100259;29;20171;-93
2023/04/27 01:47:15;;;;;;;21.87;8.03;;;6.70;99.90;;;;;;4100037;29;20183;-93
2023/04/27 01:49:16;;;;;;;15.67;8.13;;;6.80;99.90;;;;;;4099794;29;20182;-92
2023/04/27 01:51:17;;;;;;;14.07;7.93;;;6.70;99.90;;;;;;4099695;29;20178;-92
2023/04/27 01:53:18;;;;;;;17.17;8.87;;;6.70;99.90;;;;;;4115413;28;20657;-92
2023/04/27 01:55:19;;;;;;;20.53;8.67;;;6.60;99.90;;;;;;4116025;28;20181;-91
2023/04/27 01:57:20;;;;;;;17.27;7.93;;;6.50;99.90;;;;;;4099555;28;20267;-92
2023/04/27 01:59:21;;;;;;;22.40;9.13;;;6.40;99.90;;;;;;4115785;28;20266;-92
2023/04/27 02:01:22;;;;;;;18.97;8.63;;;6.30;99.90;;;;;;4099923;29;20182;-92
2023/04/27 02:03:23;;;;;;;15.90;9.37;;;6.30;99.90;;;;;;4115427;28;20189;-91
2023/04/27 02:05:24;;;;;;;18.30;8.27;;;6.40;99.90;;;;;;4099707;28;20206;-93
2023/04/27 02:07:26;;;;;;;19.93;9.43;;;6.40;99.90;;;;;;4099907;28;20187;-92
2023/04/27 02:09:27;;;;;;;17.47;9.00;;;6.40;99.90;;;;;;4115809;28;20307;-92
2023/04/27 02:11:28;;;;;;;14.87;8.97;;;6.40;99.90;;;;;;4099791;29;20174;-94
2023/04/27 02:13:29;;;;;;;15.80;8.97;;;6.50;99.90;;;;;;4099330;28;20210;-92
2023/04/27 02:15:30;;;;;;;16.73;8.77;;;6.50;99.90;;;;;;4114950;28;20254;-93
2023/04/27 02:17:33;;;;;;;15.73;8.63;;;6.50;99.90;;;;;;4099254;29;20756;-93
2023/04/27 02:19:35;;;;;;;21.70;9.27;;;6.50;99.90;;;;;;4099409;29;20231;-92
2023/04/27 02:21:35;;;;;;;17.83;9.00;;;6.60;99.90;;;;;;4099713;29;20270;-92
2023/04/27 02:23:36;;;;;;;22.10;9.20;;;6.60;99.90;;;;;;4099758;28;20280;-93
2023/04/27 02:25:37;;;;;;;16.20;9.17;;;6.70;99.90;;;;;;4115301;28;20189;-93
2023/04/27 02:27:40;;;;;;;22.63;9.40;;;6.70;99.90;;;;;;4099433;29;20238;-92
2023/04/27 02:29:41;;;;;;;17.57;9.90;;;6.80;99.90;;;;;;4115186;28;20182;-94
2023/04/27 02:31:41;;;;;;;19.70;9.20;;;6.90;99.90;;;;;;4115165;28;20503;-92
2023/04/27 02:33:42;;;;;;;18.43;9.40;;;6.90;99.90;;;;;;4099136;28;20219;-93
2023/04/27 02:35:43;;;;;;;18.27;9.87;;;7.00;99.90;;;;;;4115669;28;20182;-93
2023/04/27 02:37:44;;;;;;;16.67;9.10;;;7.10;99.90;;;;;;4099137;29;20194;-93
2023/04/27 02:39:45;;;;;;;18.43;10.23;;;7.10;99.90;;;;;;4115207;28;20174;-93
2023/04/27 02:41:46;;;;;;;18.87;10.17;;;7.00;99.90;;;;;;4099066;29;20175;-92
2023/04/27 02:43:50;;;;;;;16.73;8.90;;;7.00;99.90;;;;;;4099010;28;20194;-93
2023/04/27 02:45:51;;;;;;;16.77;9.17;;;6.90;99.90;;;;;;4099312;28;20210;-91
2023/04/27 02:47:51;;;;;;;17.23;9.43;;;6.70;99.90;;;;;;4115398;28;20174;-92
2023/04/27 02:49:52;;;;;;;18.87;9.37;;;6.60;99.90;;;;;;4099117;29;20198;-93
2023/04/27 02:51:53;;;;;;;19.33;10.20;;;6.50;99.90;;;;;;4099132;29;20532;-93
2023/04/27 02:53:54;;;;;;;21.07;10.23;;;6.40;99.90;;;;;;4098949;28;20218;-93
2023/04/27 02:55:55;;;;;;;21.93;10.27;;;6.30;99.90;;;;;;4099062;29;20269;-91
2023/04/27 02:57:56;;;;;;;26.27;10.73;;;6.20;99.90;;;;;;4099152;29;20175;-93
2023/04/27 02:59:57;;;;;;;20.47;10.07;;;6.20;99.90;;;;;;4099320;29;20203;-93
2023/04/27 03:01:57;;;;;;;18.67;10.10;;;6.10;99.90;;;;;;4115258;28;20175;-93
2023/04/27 03:03:58;;;;;;;18.37;10.73;;;6.10;99.90;;;;;;4099108;28;20251;-91
2023/04/27 03:05:59;;;;;;;18.83;10.60;;;6.10;99.90;;;;;;4098959;29;20258;-94
2023/04/27 03:08:00;;;;;;;22.53;10.23;;;6.10;99.90;;;;;;4099260;29;20629;-92
2023/04/27 03:10:01;;;;;;;20.43;9.97;;;6.10;99.90;;;;;;4099454;29;20175;-91
2023/04/27 03:12:04;;;;;;;16.67;9.50;;;6.10;99.90;;;;;;4115288;28;20177;-92
2023/04/27 03:14:05;;;;;;;17.40;10.27;;;5.70;99.90;;;;;;4099024;28;20222;-93
2023/04/27 03:16:08;;;;;;;19.47;9.70;;;5.50;99.90;;;;;;4099049;29;20227;-92
2023/04/27 03:18:08;;;;;;;15.97;9.80;;;5.70;99.90;;;;;;4099633;29;20171;-93
2023/04/27 03:20:11;;;;;;;21.37;9.60;;;6.00;99.90;;;;;;4099091;29;20273;-93
2023/04/27 03:22:11;;;;;;;20.37;9.93;;;6.10;99.90;;;;;;4099785;29;20242;-91
2023/04/27 03:24:12;;;;;;;24.30;10.07;;;6.00;99.90;;;;;;4114879;28;20202;-91
2023/04/27 03:26:13;;;;;;;20.33;10.27;;;6.00;99.90;;;;;;4099381;28;20219;-92
2023/04/27 03:28:15;;;;;;;21.63;10.70;;;6.00;99.90;;;;;;4102265;29;20247;-92
2023/04/27 03:30:16;;;;;;;23.13;10.87;;;6.00;99.90;;;;;;4101714;29;20233;-92
2023/04/27 03:32:17;;;;;;;22.30;11.10;;;6.00;99.90;;;;;;4102287;29;20179;-93
2023/04/27 03:34:19;;;;;;;22.30;10.40;;;6.00;99.90;;;;;;4118112;28;20612;-93
2023/04/27 03:36:20;;;;;;;17.77;10.13;;;5.90;99.90;;;;;;4118335;28;20618;-91
2023/04/27 03:38:21;;;;;;;18.57;10.10;;;5.70;99.90;;;;;;4117753;28;20187;-93
2023/04/27 03:40:22;;;;;;;24.87;10.60;;;5.70;99.90;;;;;;4102256;29;20630;-93
2023/04/27 03:42:23;;;;;;;23.07;10.93;;;5.60;99.90;;;;;;4102045;29;20181;-92
2023/04/27 03:44:24;;;;;;;29.30;11.60;;;5.60;99.90;;;;;;4101869;28;20258;-92
2023/04/27 03:46:25;;;;;;;20.83;11.00;;;5.50;99.90;;;;;;4101602;28;20182;-91
2023/04/27 03:48:26;;;;;;;20.87;11.23;;;5.60;99.90;;;;;;4102036;29;20175;-93
2023/04/27 03:50:29;;;;;;;20.53;10.87;;;5.60;99.90;;;;;;4118375;28;20198;-94
2023/04/27 03:52:29;;;;;;;25.43;12.00;;;5.60;99.90;;;;;;4101636;28;20206;-93
2023/04/27 03:54:31;;;;;;;23.17;11.10;;;5.60;99.90;;;;;;4101852;29;20222;-93
2023/04/27 03:56:31;;;;;;;28.33;12.37;;;5.60;99.90;;;;;;4366772;23;20233;-94
2023/04/27 03:58:32;;;;;;;21.90;11.80;;;5.70;99.90;;;;;;4150397;28;20184;-94
2023/04/27 04:00:53;;;;;;;23.37;11.93;;;5.80;99.90;;;;;;4168846;28;20186;-94
2023/04/27 04:02:55;;;;;;;22.23;11.17;;;5.80;99.90;;;;;;4150318;28;20258;-92
2023/04/27 04:04:56;;;;;;;18.83;11.23;;;5.90;99.90;;;;;;4164385;28;20255;-95
2023/04/27 04:06:57;;;;;;;24.20;11.93;;;5.90;99.90;;;;;;4134361;28;20200;-93
2023/04/27 04:08:59;;;;;;;22.90;11.97;;;6.00;99.90;;;;;;4134190;28;20178;-93
2023/04/27 04:11:00;;;;;;;27.03;11.83;;;6.10;99.90;;;;;;4150303;28;20180;-95
2023/04/27 04:13:02;;;;;;;38.23;12.83;;;6.30;99.90;;;;;;4149827;28;20213;-94
2023/04/27 04:15:06;;;;;;;19.80;11.03;;;6.30;99.90;;;;;;4150187;28;20339;-93
2023/04/27 04:17:09;;;;;;;22.97;12.10;;;6.40;99.90;;;;;;4149746;28;20180;-92
2023/04/27 04:19:10;;;;;;;17.77;11.17;;;6.50;99.90;;;;;;4133781;28;20176;-92
2023/04/27 04:21:11;;;;;;;29.60;11.80;;;6.30;99.90;;;;;;4134148;28;20169;-93
2023/04/27 04:23:12;;;;;;;22.67;12.20;;;6.40;99.90;;;;;;4150216;28;20224;-95
2023/04/27 04:25:13;;;;;;;30.33;11.87;;;6.40;99.90;;;;;;4133912;28;20258;-93
2023/04/27 04:27:15;;;;;;;22.53;12.20;;;6.40;99.90;;;;;;4134029;28;20185;-95
2023/04/27 04:29:16;;;;;;;25.90;12.33;;;6.40;99.90;;;;;;4133516;28;20185;-93
2023/04/27 04:31:17;;;;;;;22.13;11.33;;;6.40;99.90;;;;;;4133865;28;20166;-93
2023/04/27 04:33:19;;;;;;;19.00;11.13;;;6.40;99.90;;;;;;4149967;28;20293;-93
2023/04/27 04:35:20;;;;;;;22.73;11.77;;;6.20;99.90;;;;;;4166366;28;20640;-94
2023/04/27 04:37:22;;;;;;;21.17;11.33;;;6.20;99.90;;;;;;4134106;28;20561;-93
2023/04/27 04:39:24;;;;;;;21.87;11.53;;;6.20;99.90;;;;;;4149379;28;20172;-93
2023/04/27 04:41:24;;;;;;;27.07;12.50;;;6.20;99.90;;;;;;4133616;28;20685;-93
2023/04/27 04:43:25;;;;;;;24.70;11.83;;;6.10;99.90;;;;;;4149596;28;20200;-93
2023/04/27 04:45:27;;;;;;;23.40;11.87;;;6.10;99.90;;;;;;4149469;28;20208;-92
2023/04/27 04:47:30;;;;;;;32.67;12.60;;;6.00;99.90;;;;;;4133177;28;20173;-93
2023/04/27 04:49:31;;;;;;;20.50;11.80;;;5.90;99.90;;;;;;4149430;28;20165;-94
2023/04/27 04:51:32;;;;;;;26.33;11.63;;;5.80;99.90;;;;;;4133336;28;20181;-93
2023/04/27 04:53:33;;;;;;;28.67;11.50;;;5.80;99.90;;;;;;4133230;28;20213;-92
2023/04/27 04:55:34;;;;;;;24.57;11.67;;;5.90;99.90;;;;;;4133259;28;20173;-94
2023/04/27 04:57:35;;;;;;;25.10;11.97;;;5.90;99.90;;;;;;4149142;28;20185;-93
2023/04/27 04:59:36;;;;;;;24.37;11.87;;;6.00;99.90;;;;;;4133374;28;20162;-93
2023/04/27 05:01:37;;;;;;;27.73;11.73;;;6.10;99.90;;;;;;4149587;28;20200;-93
2023/04/27 05:03:38;;;;;;;23.67;11.40;;;6.10;99.90;;;;;;4149127;28;20243;-94
2023/04/27 05:05:38;;;;;;;28.00;12.13;;;6.20;99.90;;;;;;4165818;28;20184;-92
2023/04/27 05:07:39;;;;;;;34.63;12.40;;;6.20;99.90;;;;;;4133210;28;20170;-90
2023/04/27 05:09:40;;;;;;;27.20;12.33;;;6.30;99.90;;;;;;4149044;28;20180;-91
2023/04/27 05:11:41;;;;;;;22.03;11.53;;;6.40;99.90;;;;;;4149298;28;20215;-91
2023/04/27 05:13:42;;;;;;;21.73;11.10;;;6.50;99.90;;;;;;4148870;28;20272;-92
2023/04/27 05:15:42;;;;;;;20.97;11.10;;;6.60;99.90;;;;;;4133236;28;20216;-91
2023/04/27 05:17:43;;;;;;;24.93;11.50;;;6.70;99.90;;;;;;4132985;28;20542;-91
2023/04/27 05:19:44;;;;;;;27.67;11.60;;;6.70;99.90;;;;;;4133078;28;20165;-90
2023/04/27 05:21:45;;;;;;;22.67;10.87;;;6.80;99.90;;;;;;4149269;28;20183;-91
2023/04/27 05:23:46;;;;;;;22.93;10.97;;;7.00;99.90;;;;;;4149079;28;20567;-90
2023/04/27 05:25:47;;;;;;;22.90;10.87;;;7.10;99.90;;;;;;4133225;28;20186;-90
2023/04/27 05:27:48;;;;;;;25.53;11.40;;;7.20;99.90;;;;;;4148948;28;20591;-91
2023/04/27 05:29:49;;;;;;;26.27;12.00;;;7.20;99.90;;;;;;4149001;28;20181;-91
2023/04/27 05:31:49;;;;;;;23.77;11.60;;;7.20;99.90;;;;;;4149145;28;20294;-91
2023/04/27 05:33:50;;;;;;;30.97;11.87;;;7.10;99.90;;;;;;4132683;28;20220;-92
2023/04/27 05:35:51;;;;;;;26.50;11.07;;;7.10;99.90;;;;;;4132724;28;20257;-91
2023/04/27 05:37:52;;;;;;;26.13;12.37;;;7.10;99.90;;;;;;4132665;28;20188;-91
2023/04/27 05:39:53;;;;;;;27.87;12.43;;;7.00;99.90;;;;;;4148915;28;20173;-91
2023/04/27 05:41:53;;;;;;;29.73;12.03;;;6.90;99.90;;;;;;4148988;28;20348;-90
2023/04/27 05:43:54;;;;;;;33.50;12.87;;;6.70;99.90;;;;;;4132532;28;20201;-90
2023/04/27 05:45:55;;;;;;;23.40;12.03;;;6.70;99.90;;;;;;4132560;28;20177;-90
2023/04/27 05:47:56;;;;;;;26.17;12.67;;;6.60;99.90;;;;;;4132354;28;20648;-91
2023/04/27 05:49:57;;;;;;;27.37;11.50;;;6.60;99.90;;;;;;4131813;28;20173;-91
2023/04/27 05:51:57;;;;;;;24.23;12.10;;;6.60;99.90;;;;;;4132198;28;20184;-91
2023/04/27 05:54:00;;;;;;;23.43;11.57;;;6.60;99.90;;;;;;4132352;28;20213;-91
2023/04/27 05:56:03;;;;;;;27.47;12.03;;;6.60;99.90;;;;;;4148303;28;20667;-90
2023/04/27 05:58:04;;;;;;;27.33;12.40;;;6.70;99.90;;;;;;4132215;28;20527;-91
2023/04/27 06:00:09;;;;;;;25.03;11.47;;;6.90;99.90;;;;;;4132638;28;20177;-90
2023/04/27 06:02:13;;;;;;;21.77;11.37;;;7.00;99.90;;;;;;4165021;28;20206;-91
2023/04/27 06:04:13;;;;;;;21.57;11.13;;;7.20;99.90;;;;;;4148410;28;20193;-92
2023/04/27 06:06:14;;;;;;;22.97;11.30;;;7.30;99.90;;;;;;4148490;28;20260;-92
2023/04/27 06:08:15;;;;;;;25.07;11.80;;;7.50;99.90;;;;;;4132162;28;20188;-91
2023/04/27 06:10:16;;;;;;;20.33;10.60;;;7.50;99.90;;;;;;4148747;28;20173;-91
2023/04/27 06:12:17;;;;;;;22.87;11.03;;;7.30;99.90;;;;;;4148417;28;20185;-94
2023/04/27 06:14:18;;;;;;;25.30;11.03;;;7.30;99.90;;;;;;4148366;28;20240;-91
2023/04/27 06:16:20;;;;;;;25.33;10.47;;;7.60;99.90;;;;;;4131915;28;20197;-91
2023/04/27 06:18:20;;;;;;;18.20;9.87;;;8.00;99.90;;;;;;4148563;28;20568;-91
2023/04/27 06:20:21;;;;;;;24.33;10.70;;;8.40;99.90;;;;;;4148292;28;20248;-90
2023/04/27 06:22:22;;;;;;;22.27;10.83;;;8.80;99.90;;;;;;4132373;28;20236;-91
2023/04/27 06:24:23;;;;;;;23.47;11.07;;;8.90;99.90;;;;;;4148110;28;20312;-92
2023/04/27 06:26:24;;;;;;;21.57;11.23;;;8.90;99.90;;;;;;4148463;28;20179;-91
2023/04/27 06:28:25;;;;;;;48.60;12.53;;;9.00;99.90;;;;;;4148414;28;20243;-91
2023/04/27 06:30:25;;;;;;;21.87;11.53;;;9.00;99.90;;;;;;4148219;28;20456;-90
2023/04/27 06:32:26;;;;;;;24.70;12.30;;;9.10;99.90;;;;;;4148334;28;20640;-92
2023/04/27 06:34:27;;;;;;;21.20;11.07;;;9.00;99.90;;;;;;4147793;28;20217;-90
2023/04/27 06:36:28;;;;;;;18.63;10.87;;;9.00;99.90;;;;;;4147822;28;20209;-91
2023/04/27 06:38:29;;;;;;;21.53;11.93;;;9.00;99.90;;;;;;4148326;28;20181;-91
2023/04/27 06:40:30;;;;;;;23.20;11.17;;;9.10;99.90;;;;;;4148417;28;20196;-91
2023/04/27 06:42:31;;;;;;;22.70;10.97;;;8.90;99.90;;;;;;4148131;28;20184;-91
2023/04/27 06:44:32;;;;;;;25.20;11.87;;;9.00;99.90;;;;;;4148374;28;20650;-92
2023/04/27 06:46:33;;;;;;;21.20;10.77;;;8.70;99.90;;;;;;4148175;28;20176;-91
2023/04/27 06:48:33;;;;;;;25.60;10.97;;;8.80;99.90;;;;;;4131822;28;20191;-93
2023/04/27 06:50:34;;;;;;;20.13;11.20;;;8.70;99.90;;;;;;4148228;28;20177;-91
2023/04/27 06:52:35;;;;;;;21.50;11.57;;;8.70;99.90;;;;;;4147991;28;20173;-93
2023/04/27 06:54:36;;;;;;;19.00;11.07;;;8.90;99.90;;;;;;4164147;28;20664;-91
2023/04/27 06:56:37;;;;;;;25.07;12.27;;;9.20;99.90;;;;;;4131788;28;20189;-92
2023/04/27 06:58:38;;;;;;;25.33;11.67;;;9.60;99.90;;;;;;4148213;28;20177;-91
2023/04/27 07:00:39;;;;;;;25.50;11.87;;;9.90;99.90;;;;;;4131754;28;20197;-91
2023/04/27 07:02:39;;;;;;;23.93;12.37;;;9.90;99.90;;;;;;4150159;28;20177;-92
2023/04/27 07:04:42;;;;;;;27.10;11.87;;;10.00;99.90;;;;;;4134912;28;20177;-91
2023/04/27 07:06:42;;;;;;;27.67;12.23;;;10.20;99.90;;;;;;4151414;28;20173;-91
2023/04/27 07:08:43;;;;;;;23.13;12.13;;;10.20;99.90;;;;;;4135029;28;20169;-93
2023/04/27 07:10:44;;;;;;;25.10;12.47;;;10.20;99.90;;;;;;4134851;28;20181;-92
2023/04/27 07:12:45;;;;;;;26.27;12.03;;;10.70;99.90;;;;;;4150500;28;20565;-91
2023/04/27 07:14:46;;;;;;;24.60;10.80;;;10.30;99.90;;;;;;4150870;28;20216;-92
2023/04/27 07:16:46;;;;;;;23.50;12.27;;;10.50;99.90;;;;;;4150987;28;20223;-92
2023/04/27 07:18:47;;;;;;;26.58;12.43;;;11.10;99.90;;;;;;4134597;28;20188;-92
2023/04/27 07:20:48;;;;;;;24.95;11.48;;;11.90;99.90;;;;;;4135008;28;20237;-93
2023/04/27 07:22:49;;;;;;;22.38;11.20;;;12.80;99.90;;;;;;4150840;28;20533;-91
2023/04/27 07:24:50;;;;;;;21.38;11.43;;;13.00;99.90;;;;;;4150970;28;20175;-92
2023/04/27 07:26:51;;;;;;;24.70;11.85;;;12.80;99.90;;;;;;4134462;28;20177;-91
2023/04/27 07:28:51;;;;;;;21.10;12.23;;;12.90;99.90;;;;;;4150713;28;20564;-93
2023/04/27 07:30:52;;;;;;;21.27;11.98;;;13.60;99.90;;;;;;4151019;28;20177;-93
2023/04/27 07:32:53;;;;;;;24.20;11.45;;;14.60;99.90;;;;;;4150660;28;20196;-93
2023/04/27 07:34:54;;;;;;;23.85;11.27;;;15.10;99.90;;;;;;4151060;28;20293;-92
2023/04/27 07:36:55;;;;;;;20.25;11.57;;;15.10;99.90;;;;;;4150834;28;20201;-93
2023/04/27 07:38:57;;;;;;;25.20;11.68;;;14.90;99.90;;;;;;4150449;28;20199;-92
2023/04/27 07:41:00;;;;;;;22.67;11.85;;;14.90;99.90;;;;;;4150717;28;20169;-92
2023/04/27 07:43:01;;;;;;;27.77;12.63;;;15.00;99.90;;;;;;4150369;28;20251;-91
2023/04/27 07:45:02;;;;;;;20.50;11.95;;;15.60;99.90;;;;;;4150372;28;20181;-93
2023/04/27 07:47:04;;;;;;;17.05;10.85;;;15.70;99.90;;;;;;4167036;28;20176;-93
2023/04/27 07:49:04;;;;;;;21.20;12.38;;;14.90;99.90;;;;;;4166597;28;20216;-94
2023/04/27 07:51:05;;;;;;;19.92;11.93;;;14.40;99.90;;;;;;4134454;28;20621;-93
2023/04/27 07:53:06;;;;;;;21.70;11.02;;;14.10;99.90;;;;;;4134298;28;20581;-93
2023/04/27 07:55:07;;;;;;;19.95;11.70;;;14.00;99.90;;;;;;4166898;28;20204;-94
2023/04/27 07:57:10;;;;;;;21.67;12.27;;;14.30;99.90;;;;;;4150361;28;20185;-92
2023/04/27 07:59:11;;;;;;;21.55;10.82;;;14.40;99.90;;;;;;4150592;28;20184;-93
2023/04/27 08:01:12;;;;;;;22.45;12.02;;;15.10;99.90;;;;;;4150364;28;20568;-93
2023/04/27 08:03:13;;;;;;;20.83;12.02;;;15.10;99.90;;;;;;4150528;28;20196;-92
2023/04/27 08:05:14;;;;;;;30.17;13.63;;;15.30;99.90;;;;;;4150542;28;20292;-93
2023/04/27 08:07:17;;;;;;;24.30;14.05;;;14.80;99.90;;;;;;4150093;28;20176;-87
2023/04/27 08:09:18;;;;;;;21.73;12.52;;;14.30;99.90;;;;;;4150278;28;20200;-92
2023/04/27 08:11:19;;;;;;;20.27;11.95;;;13.60;99.90;;;;;;4150354;28;20177;-93
2023/04/27 08:13:20;;;;;;;22.65;11.93;;;13.50;99.90;;;;;;4132768;28;20221;-92
2023/04/27 08:15:20;;;;;;;20.40;12.50;;;13.20;99.90;;;;;;4133981;28;20173;-92
2023/04/27 08:17:21;;;;;;;26.05;12.95;;;13.10;99.90;;;;;;4133974;28;20169;-93
2023/04/27 08:19:22;;;;;;;24.25;13.48;;;13.00;99.90;;;;;;4133850;28;20178;-93
2023/04/27 08:21:23;;;;;;;25.92;12.75;;;12.70;99.90;;;;;;4150141;28;20169;-92
2023/04/27 08:23:28;;;;;;;25.45;12.35;;;12.50;99.90;;;;;;4149929;28;20205;-93
2023/04/27 08:25:29;;;;;;;23.23;12.07;;;12.70;99.90;;;;;;4149934;28;20193;-92
2023/04/27 08:27:30;;;;;;;18.90;10.95;;;13.10;99.90;;;;;;4150043;28;20237;-93
2023/04/27 08:29:31;;;;;;;19.55;11.85;;;13.80;99.90;;;;;;4133920;28;20186;-94
2023/04/27 08:31:32;;;;;;;20.80;10.52;;;14.00;99.90;;;;;;4150069;28;20305;-91
2023/04/27 08:33:33;;;;;;;18.77;10.93;;;14.50;99.90;;;;;;4165859;28;20215;-93
2023/04/27 08:35:33;;;;;;;17.13;10.30;;;15.10;99.90;;;;;;4149871;28;20193;-92
2023/04/27 08:37:34;;;;;;;21.90;10.38;;;15.20;99.90;;;;;;4133524;28;20204;-92
2023/04/27 08:39:35;;;;;;;16.65;10.35;;;14.80;99.90;;;;;;4133472;28;20594;-92
2023/04/27 08:41:39;;;;;;;17.27;8.98;;;14.60;99.90;;;;;;4133461;28;20192;-92
2023/04/27 08:43:40;;;;;;;20.40;9.98;;;14.70;99.90;;;;;;4133555;28;20347;-92
2023/04/27 08:45:49;;;;;;;21.40;9.88;;;14.70;99.90;;;;;;4133567;28;20173;-92
2023/04/27 08:47:50;;;;;;;21.80;10.45;;;13.90;99.90;;;;;;4149700;28;20632;-92
2023/04/27 08:49:51;;;;;;;18.38;10.60;;;14.00;99.90;;;;;;4133472;28;20189;-92
2023/04/27 08:51:52;;;;;;;18.88;10.50;;;14.50;99.90;;;;;;4149586;28;20641;-92
2023/04/27 08:53:55;;;;;;;23.92;10.43;;;14.80;99.90;;;;;;4133387;28;20625;-93
2023/04/27 08:55:56;;;;;;;22.23;10.43;;;14.60;99.90;;;;;;4149342;28;20177;-92
2023/04/27 08:57:58;;;;;;;19.02;10.60;;;15.00;99.90;;;;;;4149917;28;20180;-92
2023/04/27 08:59:59;;;;;;;15.68;9.35;;;15.50;99.90;;;;;;4149737;28;20180;-94
2023/04/27 09:02:00;;;;;;;20.33;9.90;;;15.10;99.90;;;;;;4133319;28;20228;-92
2023/04/27 09:04:01;;;;;;;21.35;10.05;;;15.30;99.90;;;;;;4149356;28;20224;-93
2023/04/27 09:06:03;;;;;;;18.17;9.88;;;15.20;99.90;;;;;;4133127;28;20629;-92
2023/04/27 09:08:07;;;;;;;22.55;10.85;;;14.90;99.90;;;;;;4149095;28;20622;-92
2023/04/27 09:10:08;;;;;;;21.08;9.90;;;15.20;99.90;;;;;;4149346;28;20199;-92
2023/04/27 09:12:21;;;;;;;20.80;10.27;;;15.40;99.90;;;;;;4132890;28;20208;-92
2023/04/27 09:14:23;;;;;;;19.42;9.60;;;15.60;99.90;;;;;;4148886;28;20248;-92
2023/04/27 09:16:27;;;;;;;16.55;10.07;;;15.10;99.90;;;;;;4149345;28;20199;-93
2023/04/27 09:18:28;;;;;;;16.58;9.25;;;14.60;99.90;;;;;;4149153;28;20561;-93
2023/04/27 09:20:30;;;;;;;19.38;9.77;;;14.40;99.90;;;;;;4149131;28;20180;-92
2023/04/27 09:22:31;;;;;;;13.43;8.32;;;14.70;99.90;;;;;;4133040;28;20280;-92
2023/04/27 09:24:32;;;;;;;15.88;8.52;;;14.90;99.90;;;;;;4132598;28;20170;-92
2023/04/27 09:26:33;;;;;;;17.42;9.40;;;14.90;99.90;;;;;;4149008;28;20175;-92
2023/04/27 09:28:47;;;;;;;18.67;9.43;;;14.80;99.90;;;;;;4148870;28;20580;-92
2023/04/27 09:30:53;;;;;;;17.08;9.40;;;14.60;99.90;;;;;;4165527;28;20172;-91
2023/04/27 09:32:59;;;;;;;17.08;9.10;;;15.00;99.90;;;;;;4148714;28;20232;-91
2023/04/27 09:35:01;;;;;;;17.10;9.13;;;14.70;99.90;;;;;;4149056;28;20169;-94
2023/04/27 09:37:02;;;;;;;14.13;8.45;;;14.10;99.90;;;;;;4132679;28;20233;-93
2023/04/27 09:39:05;;;;;;;13.45;8.60;;;14.40;99.90;;;;;;4148976;28;20180;-93
2023/04/27 09:41:07;;;;;;;20.05;9.20;;;14.50;99.90;;;;;;4148671;28;20173;-93
2023/04/27 09:43:09;;;;;;;17.02;9.55;;;14.40;99.90;;;;;;4148516;28;20196;-92
2023/04/27 09:45:10;;;;;;;14.30;8.80;;;14.80;99.90;;;;;;4148744;28;20674;-93
2023/04/27 09:47:13;;;;;;;19.83;9.00;;;15.30;99.90;;;;;;4148473;28;20289;-93
2023/04/27 09:49:16;;;;;;;17.77;9.05;;;15.50;99.90;;;;;;4148609;28;20645;-93
2023/04/27 09:51:17;;;;;;;16.95;8.98;;;15.70;99.90;;;;;;4148888;28;20181;-92
2023/04/27 09:53:25;;;;;;;17.10;8.93;;;15.90;99.90;;;;;;4132498;28;20208;-94
2023/04/27 09:55:46;;;;;;;13.27;8.77;;;16.20;99.90;;;;;;4164110;23;20245;-94
2023/04/27 09:58:25;;;;;;;23.02;9.32;;;16.40;99.90;;;;;;4148833;28;20180;-94
2023/04/27 10:00:50;;;;;;;15.52;9.10;;;16.10;99.90;;;;;;4132753;28;20244;-95
2023/04/27 10:03:14;;;;;;;17.95;9.88;;;16.10;99.90;;;;;;4132435;28;20198;-95
2023/04/27 10:05:29;;;;;;;12.40;7.10;;;16.50;99.90;;;;;;4165160;28;20259;-93
2023/04/27 10:07:32;;;;;;;13.10;8.00;;;15.80;99.90;;;;;;4148558;28;20596;-94
2023/04/27 10:09:50;;;;;;;15.10;8.05;;;15.30;99.90;;;;;;4148617;28;20659;-94
2023/04/27 10:11:53;;;;;;;16.20;8.10;;;15.60;99.90;;;;;;4148403;28;20263;-94
2023/04/27 10:13:54;;;;;;;11.23;7.10;;;16.50;99.90;;;;;;4148240;28;20204;-95
2023/04/27 10:15:57;;;;;;;13.93;7.57;;;16.20;99.90;;;;;;4132240;28;20660;-94
2023/04/27 10:18:04;;;;;;;14.65;8.20;;;16.20;99.90;;;;;;4132297;28;20204;-95
2023/04/27 10:20:07;;;;;;;16.88;9.00;;;16.10;99.90;;;;;;4148507;28;20180;-94
2023/04/27 10:22:08;;;;;;;14.43;8.82;;;15.70;99.90;;;;;;4164586;28;20611;-94
2023/04/27 10:24:09;;;;;;;15.07;8.65;;;15.50;99.90;;;;;;4132191;28;20189;-93
2023/04/27 10:26:10;;;;;;;19.23;8.05;;;15.50;99.90;;;;;;4148015;28;20181;-94